Weather Outlook 5th December 2019 (12 noon)

Atlantic High Pressure System should dominate across the region for the next few days. Dry air is across St. Vincent and the Grenadines (SVG), but occasional showers are likely tonight, Friday and Saturday, as brisk winds push low-level clouds across the area. A low-level shearline could approach the island chain late Sunday, possibly increasing cloudiness with showers.

Moderate to fresh (25 – 40 km/h) east north-easterly breeze could be temporarily decreased (15 - 25 km/h) Sunday evening as a shearline approaches the area.  

Slight to moderate (1.2 – 2.0 m) sea conditions are across our islands, with easterly swells.

Wave heights could be increased on east coasts by early morning Monday, hence small craft operators and sea-bathers should exercise caution as swells could be above normal with brisk winds… Good visibility continues across SVG, with occasional thin-films of haze.

Aviation WX

[Source: ADDS]
METAR
TVSA 082200Z 02005KT 9999 FEW016 SCT028 26/22 Q1014 TEMPO SHRA =
AMD TVSA 082030Z 0821/0918 07008KT 9999 BKN015 SCT036 TEMPO 0821/0902 3000 TSRA BKN008 SCT012CB BKN030
TAF
AMD TVSA 082030Z 0821/0918 07008KT 9999 BKN015 SCT036 TEMPO 0821/0902 3000 TSRA BKN008 SCT012CB BKN030 =
SR / SS: 09:51 / 22:28 UTC (Sunrise Sunset 2020-08-08)